sensor_id;sensor_type;location;lat;lon;timestamp;temperature;humidity
39875;DHT22;25547;52.530;13.194;2023-02-03T00:01:08;3.30;99.90
39875;DHT22;25547;52.530;13.194;2023-02-03T00:03:33;3.30;99.90
39875;DHT22;25547;52.530;13.194;2023-02-03T00:06:02;3.30;99.90
39875;DHT22;25547;52.530;13.194;2023-02-03T00:08:29;3.30;99.90
39875;DHT22;25547;52.530;13.194;2023-02-03T00:10:55;3.30;99.90
39875;DHT22;25547;52.530;13.194;2023-02-03T00:13:24;3.30;99.90
39875;DHT22;25547;52.530;13.194;2023-02-03T00:15:51;3.30;99.90
39875;DHT22;25547;52.530;13.194;2023-02-03T00:18:17;3.30;99.90
39875;DHT22;25547;52.530;13.194;2023-02-03T00:20:42;3.30;99.90
39875;DHT22;25547;52.530;13.194;2023-02-03T00:23:09;3.30;99.90
39875;DHT22;25547;52.530;13.194;2023-02-03T00:25:39;3.30;99.90
39875;DHT22;25547;52.530;13.194;2023-02-03T00:28:07;3.30;99.90
39875;DHT22;25547;52.530;13.194;2023-02-03T00:30:36;3.30;99.90
39875;DHT22;25547;52.530;13.194;2023-02-03T00:33:02;3.40;99.90
39875;DHT22;25547;52.530;13.194;2023-02-03T00:35:28;3.40;99.90
39875;DHT22;25547;52.530;13.194;2023-02-03T00:37:54;3.40;99.90
39875;DHT22;25547;52.530;13.194;2023-02-03T00:40:22;3.40;99.90
39875;DHT22;25547;52.530;13.194;2023-02-03T00:42:48;3.40;99.90
39875;DHT22;25547;52.530;13.194;2023-02-03T00:45:14;3.40;99.90
39875;DHT22;25547;52.530;13.194;2023-02-03T00:47:39;3.40;99.90
39875;DHT22;25547;52.530;13.194;2023-02-03T00:50:06;3.40;99.90
39875;DHT22;25547;52.530;13.194;2023-02-03T00:52:32;3.40;99.90
39875;DHT22;25547;52.530;13.194;2023-02-03T00:54:57;3.40;99.90
39875;DHT22;25547;52.530;13.194;2023-02-03T00:57:23;3.40;99.90
39875;DHT22;25547;52.530;13.194;2023-02-03T00:59:48;3.40;99.90
39875;DHT22;25547;52.530;13.194;2023-02-03T01:02:14;3.40;99.90
39875;DHT22;25547;52.530;13.194;2023-02-03T01:04:44;3.40;99.90
39875;DHT22;25547;52.530;13.194;2023-02-03T01:07:10;3.40;99.90
39875;DHT22;25547;52.530;13.194;2023-02-03T01:09:41;3.40;99.90
39875;DHT22;25547;52.530;13.194;2023-02-03T01:12:06;3.40;99.90
39875;DHT22;25547;52.530;13.194;2023-02-03T01:14:37;3.40;99.90
39875;DHT22;25547;52.530;13.194;2023-02-03T01:17:02;3.40;99.90
39875;DHT22;25547;52.530;13.194;2023-02-03T01:19:28;3.40;99.90
39875;DHT22;25547;52.530;13.194;2023-02-03T01:21:56;3.40;99.90
39875;DHT22;25547;52.530;13.194;2023-02-03T01:24:21;3.40;99.90
39875;DHT22;25547;52.530;13.194;2023-02-03T01:26:47;3.40;99.90
39875;DHT22;25547;52.530;13.194;2023-02-03T01:29:13;3.50;99.90
39875;DHT22;25547;52.530;13.194;2023-02-03T01:31:40;3.40;99.90
39875;DHT22;25547;52.530;13.194;2023-02-03T01:34:10;3.40;99.90
39875;DHT22;25547;52.530;13.194;2023-02-03T01:36:36;3.40;99.90
39875;DHT22;25547;52.530;13.194;2023-02-03T01:39:03;3.30;99.90
39875;DHT22;25547;52.530;13.194;2023-02-03T01:41:34;3.30;99.90
39875;DHT22;25547;52.530;13.194;2023-02-03T01:46:57;3.40;99.90
39875;DHT22;25547;52.530;13.194;2023-02-03T01:49:29;3.30;99.90
39875;DHT22;25547;52.530;13.194;2023-02-03T01:51:56;3.30;99.90
39875;DHT22;25547;52.530;13.194;2023-02-03T01:54:30;3.30;99.90
39875;DHT22;25547;52.530;13.194;2023-02-03T01:57:03;3.30;99.90
39875;DHT22;25547;52.530;13.194;2023-02-03T01:59:31;3.30;99.90
39875;DHT22;25547;52.530;13.194;2023-02-03T02:01:58;3.30;99.90
39875;DHT22;25547;52.530;13.194;2023-02-03T02:04:27;3.30;99.90
39875;DHT22;25547;52.530;13.194;2023-02-03T02:06:56;3.20;99.90
39875;DHT22;25547;52.530;13.194;2023-02-03T02:09:25;3.30;99.90
39875;DHT22;25547;52.530;13.194;2023-02-03T02:11:53;3.20;99.90
39875;DHT22;25547;52.530;13.194;2023-02-03T02:14:19;3.20;99.90
39875;DHT22;25547;52.530;13.194;2023-02-03T02:17:00;3.20;99.90
39875;DHT22;25547;52.530;13.194;2023-02-03T02:34:30;3.10;99.90
39875;DHT22;25547;52.530;13.194;2023-02-03T02:39:38;3.10;99.90
39875;DHT22;25547;52.530;13.194;2023-02-03T02:42:33;3.10;99.90
39875;DHT22;25547;52.530;13.194;2023-02-03T02:45:29;3.10;99.90
39875;DHT22;25547;52.530;13.194;2023-02-03T02:48:04;3.20;99.90
39875;DHT22;25547;52.530;13.194;2023-02-03T02:50:36;3.20;99.90
39875;DHT22;25547;52.530;13.194;2023-02-03T02:53:06;3.20;99.90
39875;DHT22;25547;52.530;13.194;2023-02-03T02:55:40;3.10;99.90
39875;DHT22;25547;52.530;13.194;2023-02-03T02:58:10;3.10;99.90
39875;DHT22;25547;52.530;13.194;2023-02-03T03:00:37;3.10;99.90
39875;DHT22;25547;52.530;13.194;2023-02-03T03:05:50;3.10;99.90
39875;DHT22;25547;52.530;13.194;2023-02-03T03:08:21;3.20;99.90
39875;DHT22;25547;52.530;13.194;2023-02-03T03:10:47;3.10;99.90
39875;DHT22;25547;52.530;13.194;2023-02-03T03:13:19;3.10;99.90
39875;DHT22;25547;52.530;13.194;2023-02-03T03:15:48;3.10;99.90
39875;DHT22;25547;52.530;13.194;2023-02-03T03:18:23;3.10;99.90
39875;DHT22;25547;52.530;13.194;2023-02-03T03:20:50;3.10;99.90
39875;DHT22;25547;52.530;13.194;2023-02-03T03:23:29;3.10;99.90
39875;DHT22;25547;52.530;13.194;2023-02-03T03:29:00;3.20;99.90
39875;DHT22;25547;52.530;13.194;2023-02-03T03:31:30;3.30;99.90
39875;DHT22;25547;52.530;13.194;2023-02-03T03:33:56;3.30;99.90
39875;DHT22;25547;52.530;13.194;2023-02-03T03:36:38;3.20;99.90
39875;DHT22;25547;52.530;13.194;2023-02-03T03:39:31;3.20;99.90
39875;DHT22;25547;52.530;13.194;2023-02-03T03:47:36;3.40;99.90
39875;DHT22;25547;52.530;13.194;2023-02-03T03:50:14;3.40;99.90
39875;DHT22;25547;52.530;13.194;2023-02-03T03:52:43;3.40;99.90
39875;DHT22;25547;52.530;13.194;2023-02-03T03:55:12;3.40;99.90
39875;DHT22;25547;52.530;13.194;2023-02-03T03:57:45;3.50;99.90
39875;DHT22;25547;52.530;13.194;2023-02-03T04:00:19;3.50;99.90
39875;DHT22;25547;52.530;13.194;2023-02-03T04:02:49;3.40;99.90
39875;DHT22;25547;52.530;13.194;2023-02-03T04:05:16;3.50;99.90
39875;DHT22;25547;52.530;13.194;2023-02-03T04:07:44;3.50;99.90
39875;DHT22;25547;52.530;13.194;2023-02-03T04:10:37;3.60;99.90
39875;DHT22;25547;52.530;13.194;2023-02-03T04:13:04;3.70;99.90
39875;DHT22;25547;52.530;13.194;2023-02-03T04:15:35;3.70;99.90
39875;DHT22;25547;52.530;13.194;2023-02-03T04:18:01;3.70;99.90
39875;DHT22;25547;52.530;13.194;2023-02-03T04:20:28;3.70;99.90
39875;DHT22;25547;52.530;13.194;2023-02-03T04:22:54;3.80;99.90
39875;DHT22;25547;52.530;13.194;2023-02-03T04:25:23;3.80;99.90
39875;DHT22;25547;52.530;13.194;2023-02-03T04:27:48;3.90;99.90
39875;DHT22;25547;52.530;13.194;2023-02-03T04:30:14;3.90;99.90
39875;DHT22;25547;52.530;13.194;2023-02-03T04:32:45;4.00;99.90
39875;DHT22;25547;52.530;13.194;2023-02-03T04:35:11;4.10;99.90
39875;DHT22;25547;52.530;13.194;2023-02-03T04:37:42;4.10;99.90
39875;DHT22;25547;52.530;13.194;2023-02-03T04:40:12;4.20;99.90
39875;DHT22;25547;52.530;13.194;2023-02-03T04:42:39;4.30;99.90
39875;DHT22;25547;52.530;13.194;2023-02-03T04:45:08;4.30;99.90
39875;DHT22;25547;52.530;13.194;2023-02-03T04:47:34;4.40;99.90
39875;DHT22;25547;52.530;13.194;2023-02-03T04:50:00;4.50;99.90
39875;DHT22;25547;52.530;13.194;2023-02-03T04:52:26;4.50;99.90
39875;DHT22;25547;52.530;13.194;2023-02-03T04:54:52;4.60;99.90
39875;DHT22;25547;52.530;13.194;2023-02-03T04:57:20;4.60;99.90
39875;DHT22;25547;52.530;13.194;2023-02-03T04:59:48;4.70;99.90
39875;DHT22;25547;52.530;13.194;2023-02-03T05:02:13;4.80;99.90
39875;DHT22;25547;52.530;13.194;2023-02-03T05:04:41;4.90;99.90
39875;DHT22;25547;52.530;13.194;2023-02-03T05:07:07;4.90;99.90
39875;DHT22;25547;52.530;13.194;2023-02-03T05:09:36;4.90;99.90
39875;DHT22;25547;52.530;13.194;2023-02-03T05:12:01;5.00;99.90
39875;DHT22;25547;52.530;13.194;2023-02-03T05:14:27;5.00;99.90
39875;DHT22;25547;52.530;13.194;2023-02-03T05:16:52;5.10;99.90
39875;DHT22;25547;52.530;13.194;2023-02-03T05:19:20;5.10;99.90
39875;DHT22;25547;52.530;13.194;2023-02-03T05:21:48;5.20;99.90
39875;DHT22;25547;52.530;13.194;2023-02-03T05:24:18;5.30;99.90
39875;DHT22;25547;52.530;13.194;2023-02-03T05:26:44;5.40;99.90
39875;DHT22;25547;52.530;13.194;2023-02-03T05:29:10;5.50;99.90
39875;DHT22;25547;52.530;13.194;2023-02-03T05:31:38;5.50;99.90
39875;DHT22;25547;52.530;13.194;2023-02-03T05:34:04;5.50;99.90
39875;DHT22;25547;52.530;13.194;2023-02-03T05:36:29;5.60;99.90
39875;DHT22;25547;52.530;13.194;2023-02-03T05:38:55;5.60;99.90
39875;DHT22;25547;52.530;13.194;2023-02-03T05:41:21;5.70;99.90
39875;DHT22;25547;52.530;13.194;2023-02-03T05:44:05;5.80;99.90
39875;DHT22;25547;52.530;13.194;2023-02-03T05:46:31;5.90;99.90
39875;DHT22;25547;52.530;13.194;2023-02-03T05:48:59;5.90;99.90
39875;DHT22;25547;52.530;13.194;2023-02-03T05:51:24;5.90;99.90
39875;DHT22;25547;52.530;13.194;2023-02-03T05:53:50;6.00;99.90
39875;DHT22;25547;52.530;13.194;2023-02-03T05:56:18;6.00;99.90
39875;DHT22;25547;52.530;13.194;2023-02-03T05:58:44;6.00;99.90
39875;DHT22;25547;52.530;13.194;2023-02-03T06:01:09;6.10;99.90
39875;DHT22;25547;52.530;13.194;2023-02-03T06:03:38;6.10;99.90
39875;DHT22;25547;52.530;13.194;2023-02-03T06:06:04;6.10;99.90
39875;DHT22;25547;52.530;13.194;2023-02-03T06:08:29;6.10;99.90
39875;DHT22;25547;52.530;13.194;2023-02-03T06:10:58;6.10;99.90
39875;DHT22;25547;52.530;13.194;2023-02-03T06:13:28;6.20;99.90
39875;DHT22;25547;52.530;13.194;2023-02-03T06:15:54;6.20;99.90
39875;DHT22;25547;52.530;13.194;2023-02-03T06:18:22;6.20;99.90
39875;DHT22;25547;52.530;13.194;2023-02-03T06:20:49;6.30;99.90
39875;DHT22;25547;52.530;13.194;2023-02-03T06:23:15;6.20;99.90
39875;DHT22;25547;52.530;13.194;2023-02-03T06:25:47;6.30;99.90
39875;DHT22;25547;52.530;13.194;2023-02-03T06:28:13;6.30;99.90
39875;DHT22;25547;52.530;13.194;2023-02-03T06:30:41;6.30;99.90
39875;DHT22;25547;52.530;13.194;2023-02-03T06:33:09;6.30;99.90
39875;DHT22;25547;52.530;13.194;2023-02-03T06:35:39;6.40;99.90
39875;DHT22;25547;52.530;13.194;2023-02-03T06:38:05;6.40;99.90
39875;DHT22;25547;52.530;13.194;2023-02-03T06:40:30;6.40;99.90
39875;DHT22;25547;52.530;13.194;2023-02-03T06:42:56;6.40;99.90
39875;DHT22;25547;52.530;13.194;2023-02-03T06:45:26;6.50;99.90
39875;DHT22;25547;52.530;13.194;2023-02-03T06:47:54;6.40;99.90
39875;DHT22;25547;52.530;13.194;2023-02-03T06:50:20;6.40;99.90
39875;DHT22;25547;52.530;13.194;2023-02-03T06:52:48;6.50;99.90
39875;DHT22;25547;52.530;13.194;2023-02-03T06:55:14;6.60;99.90
39875;DHT22;25547;52.530;13.194;2023-02-03T06:57:45;6.60;99.90
39875;DHT22;25547;52.530;13.194;2023-02-03T07:00:12;6.60;99.90
39875;DHT22;25547;52.530;13.194;2023-02-03T07:02:38;6.70;99.90
39875;DHT22;25547;52.530;13.194;2023-02-03T07:05:06;6.70;99.90
39875;DHT22;25547;52.530;13.194;2023-02-03T07:07:35;6.70;99.90
39875;DHT22;25547;52.530;13.194;2023-02-03T07:10:01;6.80;99.90
39875;DHT22;25547;52.530;13.194;2023-02-03T07:12:30;6.80;99.90
39875;DHT22;25547;52.530;13.194;2023-02-03T07:14:55;6.80;99.90
39875;DHT22;25547;52.530;13.194;2023-02-03T07:17:21;6.80;99.90
39875;DHT22;25547;52.530;13.194;2023-02-03T07:19:49;6.80;99.90
39875;DHT22;25547;52.530;13.194;2023-02-03T07:22:15;6.90;99.90
39875;DHT22;25547;52.530;13.194;2023-02-03T07:24:43;6.90;99.90
39875;DHT22;25547;52.530;13.194;2023-02-03T07:27:08;6.90;99.90
39875;DHT22;25547;52.530;13.194;2023-02-03T07:29:39;6.90;99.90
39875;DHT22;25547;52.530;13.194;2023-02-03T07:32:04;6.90;99.90
39875;DHT22;25547;52.530;13.194;2023-02-03T07:34:32;6.90;99.90
39875;DHT22;25547;52.530;13.194;2023-02-03T07:37:00;6.90;99.90
39875;DHT22;25547;52.530;13.194;2023-02-03T07:39:25;7.00;99.90
39875;DHT22;25547;52.530;13.194;2023-02-03T07:41:54;7.00;99.90
39875;DHT22;25547;52.530;13.194;2023-02-03T07:44:19;7.00;99.90
39875;DHT22;25547;52.530;13.194;2023-02-03T07:46:47;7.00;99.90
39875;DHT22;25547;52.530;13.194;2023-02-03T07:49:13;7.00;99.90
39875;DHT22;25547;52.530;13.194;2023-02-03T07:51:39;7.00;99.90
39875;DHT22;25547;52.530;13.194;2023-02-03T07:54:05;7.00;99.90
39875;DHT22;25547;52.530;13.194;2023-02-03T07:56:33;7.00;99.90
39875;DHT22;25547;52.530;13.194;2023-02-03T07:59:01;7.00;99.90
39875;DHT22;25547;52.530;13.194;2023-02-03T08:01:27;7.00;99.90
39875;DHT22;25547;52.530;13.194;2023-02-03T08:03:53;7.10;99.90
39875;DHT22;25547;52.530;13.194;2023-02-03T08:06:18;7.10;99.90
39875;DHT22;25547;52.530;13.194;2023-02-03T08:08:44;7.10;99.90
39875;DHT22;25547;52.530;13.194;2023-02-03T08:11:12;7.10;99.90
39875;DHT22;25547;52.530;13.194;2023-02-03T08:13:40;7.10;99.90
39875;DHT22;25547;52.530;13.194;2023-02-03T08:16:05;7.10;99.90
39875;DHT22;25547;52.530;13.194;2023-02-03T08:18:31;7.10;99.90
39875;DHT22;25547;52.530;13.194;2023-02-03T08:20:57;7.10;99.90
39875;DHT22;25547;52.530;13.194;2023-02-03T08:23:22;7.10;99.90
39875;DHT22;25547;52.530;13.194;2023-02-03T08:25:51;7.10;99.90
39875;DHT22;25547;52.530;13.194;2023-02-03T08:28:19;7.10;99.90
39875;DHT22;25547;52.530;13.194;2023-02-03T08:30:45;7.00;99.90
39875;DHT22;25547;52.530;13.194;2023-02-03T08:33:13;7.10;99.90
39875;DHT22;25547;52.530;13.194;2023-02-03T08:35:39;7.10;99.90
39875;DHT22;25547;52.530;13.194;2023-02-03T08:38:05;7.10;99.90
39875;DHT22;25547;52.530;13.194;2023-02-03T08:40:30;7.10;99.90
39875;DHT22;25547;52.530;13.194;2023-02-03T08:42:56;7.10;99.90
39875;DHT22;25547;52.530;13.194;2023-02-03T08:45:21;7.20;99.90
39875;DHT22;25547;52.530;13.194;2023-02-03T08:47:47;7.20;99.90
39875;DHT22;25547;52.530;13.194;2023-02-03T08:50:13;7.20;99.90
39875;DHT22;25547;52.530;13.194;2023-02-03T08:52:39;7.20;99.90
39875;DHT22;25547;52.530;13.194;2023-02-03T08:55:05;7.20;99.90
39875;DHT22;25547;52.530;13.194;2023-02-03T08:57:34;7.20;99.90
39875;DHT22;25547;52.530;13.194;2023-02-03T09:00:00;7.20;99.90
39875;DHT22;25547;52.530;13.194;2023-02-03T09:02:29;7.20;99.90
39875;DHT22;25547;52.530;13.194;2023-02-03T09:04:54;7.20;99.90
39875;DHT22;25547;52.530;13.194;2023-02-03T09:07:23;7.20;99.90
39875;DHT22;25547;52.530;13.194;2023-02-03T09:09:49;7.20;99.90
39875;DHT22;25547;52.530;13.194;2023-02-03T09:12:14;7.20;99.90
39875;DHT22;25547;52.530;13.194;2023-02-03T09:14:40;7.30;99.90
39875;DHT22;25547;52.530;13.194;2023-02-03T09:17:08;7.30;99.90
39875;DHT22;25547;52.530;13.194;2023-02-03T09:19:34;7.30;99.90
39875;DHT22;25547;52.530;13.194;2023-02-03T09:22:03;7.30;99.90
39875;DHT22;25547;52.530;13.194;2023-02-03T09:24:29;7.30;99.90
39875;DHT22;25547;52.530;13.194;2023-02-03T09:26:57;7.40;99.90
39875;DHT22;25547;52.530;13.194;2023-02-03T09:29:27;7.40;99.90
39875;DHT22;25547;52.530;13.194;2023-02-03T09:31:55;7.40;99.90
39875;DHT22;25547;52.530;13.194;2023-02-03T09:34:21;7.40;99.90
39875;DHT22;25547;52.530;13.194;2023-02-03T09:36:47;7.40;99.90
39875;DHT22;25547;52.530;13.194;2023-02-03T09:39:13;7.40;99.90
39875;DHT22;25547;52.530;13.194;2023-02-03T09:42:02;7.40;99.90
39875;DHT22;25547;52.530;13.194;2023-02-03T09:47:23;7.50;99.90
39875;DHT22;25547;52.530;13.194;2023-02-03T09:49:59;7.50;99.90
39875;DHT22;25547;52.530;13.194;2023-02-03T09:52:28;7.50;99.90
39875;DHT22;25547;52.530;13.194;2023-02-03T09:57:34;7.50;99.90
39875;DHT22;25547;52.530;13.194;2023-02-03T10:00:09;7.60;99.90
39875;DHT22;25547;52.530;13.194;2023-02-03T10:19:43;7.80;99.90
39875;DHT22;25547;52.530;13.194;2023-02-03T10:22:16;7.90;99.90
39875;DHT22;25547;52.530;13.194;2023-02-03T10:24:49;7.90;99.90
39875;DHT22;25547;52.530;13.194;2023-02-03T10:27:19;7.90;99.90
39875;DHT22;25547;52.530;13.194;2023-02-03T10:32:34;7.90;99.90
39875;DHT22;25547;52.530;13.194;2023-02-03T10:35:02;7.90;99.90
39875;DHT22;25547;52.530;13.194;2023-02-03T10:37:34;7.90;99.90
39875;DHT22;25547;52.530;13.194;2023-02-03T10:40:04;7.90;99.90
39875;DHT22;25547;52.530;13.194;2023-02-03T10:42:31;7.90;99.90
39875;DHT22;25547;52.530;13.194;2023-02-03T10:45:18;7.90;99.90
39875;DHT22;25547;52.530;13.194;2023-02-03T10:47:54;7.70;99.90
39875;DHT22;25547;52.530;13.194;2023-02-03T10:50:26;7.60;99.90
39875;DHT22;25547;52.530;13.194;2023-02-03T10:55:42;7.40;99.90
39875;DHT22;25547;52.530;13.194;2023-02-03T10:58:17;7.30;99.90
39875;DHT22;25547;52.530;13.194;2023-02-03T11:00:44;7.30;99.90
39875;DHT22;25547;52.530;13.194;2023-02-03T11:05:37;7.20;99.90
39875;DHT22;25547;52.530;13.194;2023-02-03T11:08:15;7.30;99.90
39875;DHT22;25547;52.530;13.194;2023-02-03T11:10:41;7.20;99.90
39875;DHT22;25547;52.530;13.194;2023-02-03T11:13:11;7.30;99.90
39875;DHT22;25547;52.530;13.194;2023-02-03T11:21:19;7.40;99.90
39875;DHT22;25547;52.530;13.194;2023-02-03T11:29:30;7.40;99.90
39875;DHT22;25547;52.530;13.194;2023-02-03T11:32:00;7.40;99.90
39875;DHT22;25547;52.530;13.194;2023-02-03T11:34:35;7.30;99.90
39875;DHT22;25547;52.530;13.194;2023-02-03T11:37:26;7.40;99.90
39875;DHT22;25547;52.530;13.194;2023-02-03T11:43:08;7.40;99.90
39875;DHT22;25547;52.530;13.194;2023-02-03T11:50:38;7.40;99.90
39875;DHT22;25547;52.530;13.194;2023-02-03T12:09:30;8.00;99.90
39875;DHT22;25547;52.530;13.194;2023-02-03T12:17:55;8.10;99.90
39875;DHT22;25547;52.530;13.194;2023-02-03T12:21:00;8.10;99.90
39875;DHT22;25547;52.530;13.194;2023-02-03T12:23:35;8.10;99.90
39875;DHT22;25547;52.530;13.194;2023-02-03T12:26:19;8.20;99.90
39875;DHT22;25547;52.530;13.194;2023-02-03T12:28:57;8.20;99.90
39875;DHT22;25547;52.530;13.194;2023-02-03T12:37:27;8.10;99.90
39875;DHT22;25547;52.530;13.194;2023-02-03T12:39:53;8.20;99.90
39875;DHT22;25547;52.530;13.194;2023-02-03T12:42:26;8.30;99.90
39875;DHT22;25547;52.530;13.194;2023-02-03T12:44:57;8.40;99.90
39875;DHT22;25547;52.530;13.194;2023-02-03T12:53:16;8.40;99.90
39875;DHT22;25547;52.530;13.194;2023-02-03T12:58:37;8.20;99.90
39875;DHT22;25547;52.530;13.194;2023-02-03T13:03:47;6.80;99.90
39875;DHT22;25547;52.530;13.194;2023-02-03T13:16:54;6.30;99.90
39875;DHT22;25547;52.530;13.194;2023-02-03T13:19:29;6.10;99.90
39875;DHT22;25547;52.530;13.194;2023-02-03T13:21:56;6.00;99.90
39875;DHT22;25547;52.530;13.194;2023-02-03T13:24:24;5.90;99.90
39875;DHT22;25547;52.530;13.194;2023-02-03T13:26:55;5.80;99.90
39875;DHT22;25547;52.530;13.194;2023-02-03T13:32:24;5.80;99.90
39875;DHT22;25547;52.530;13.194;2023-02-03T13:43:01;6.00;99.90
39875;DHT22;25547;52.530;13.194;2023-02-03T13:45:38;6.00;99.90
39875;DHT22;25547;52.530;13.194;2023-02-03T13:50:35;6.20;99.90
39875;DHT22;25547;52.530;13.194;2023-02-03T13:58:28;6.20;99.90
39875;DHT22;25547;52.530;13.194;2023-02-03T14:05:55;6.20;99.90
39875;DHT22;25547;52.530;13.194;2023-02-03T14:19:03;6.30;99.90
39875;DHT22;25547;52.530;13.194;2023-02-03T14:21:45;6.30;99.90
39875;DHT22;25547;52.530;13.194;2023-02-03T14:24:14;6.40;99.90
39875;DHT22;25547;52.530;13.194;2023-02-03T14:26:48;6.40;99.90
39875;DHT22;25547;52.530;13.194;2023-02-03T14:29:35;6.40;99.90
39875;DHT22;25547;52.530;13.194;2023-02-03T14:32:04;6.50;99.90
39875;DHT22;25547;52.530;13.194;2023-02-03T14:34:48;6.60;99.90
39875;DHT22;25547;52.530;13.194;2023-02-03T14:43:00;6.90;99.90
39875;DHT22;25547;52.530;13.194;2023-02-03T14:48:23;7.30;99.90
39875;DHT22;25547;52.530;13.194;2023-02-03T14:51:09;7.40;99.90
39875;DHT22;25547;52.530;13.194;2023-02-03T14:59:02;7.30;99.90
39875;DHT22;25547;52.530;13.194;2023-02-03T15:06:44;7.30;99.90
39875;DHT22;25547;52.530;13.194;2023-02-03T15:11:54;7.40;99.90
39875;DHT22;25547;52.530;13.194;2023-02-03T15:14:27;7.30;99.90
39875;DHT22;25547;52.530;13.194;2023-02-03T15:17:01;7.30;99.90
39875;DHT22;25547;52.530;13.194;2023-02-03T15:19:48;7.30;99.90
39875;DHT22;25547;52.530;13.194;2023-02-03T15:22:23;7.30;99.90
39875;DHT22;25547;52.530;13.194;2023-02-03T15:25:02;7.30;99.90
39875;DHT22;25547;52.530;13.194;2023-02-03T15:27:30;7.30;99.90
39875;DHT22;25547;52.530;13.194;2023-02-03T15:29:56;7.30;99.90
39875;DHT22;25547;52.530;13.194;2023-02-03T15:32:33;7.30;99.90
39875;DHT22;25547;52.530;13.194;2023-02-03T15:35:02;7.20;99.90
39875;DHT22;25547;52.530;13.194;2023-02-03T15:37:53;7.20;99.90
39875;DHT22;25547;52.530;13.194;2023-02-03T15:40:22;7.20;99.90
39875;DHT22;25547;52.530;13.194;2023-02-03T15:48:06;7.10;99.90
39875;DHT22;25547;52.530;13.194;2023-02-03T15:53:13;7.10;99.90
39875;DHT22;25547;52.530;13.194;2023-02-03T15:55:48;7.10;99.90
39875;DHT22;25547;52.530;13.194;2023-02-03T15:58:26;7.10;99.90
39875;DHT22;25547;52.530;13.194;2023-02-03T16:00:56;7.10;99.90
39875;DHT22;25547;52.530;13.194;2023-02-03T16:03:40;7.10;99.90
39875;DHT22;25547;52.530;13.194;2023-02-03T16:06:22;7.00;99.90
39875;DHT22;25547;52.530;13.194;2023-02-03T16:08:50;7.00;99.90
39875;DHT22;25547;52.530;13.194;2023-02-03T16:13:56;7.00;99.90
39875;DHT22;25547;52.530;13.194;2023-02-03T16:19:13;7.00;99.90
39875;DHT22;25547;52.530;13.194;2023-02-03T16:21:52;7.00;99.90
39875;DHT22;25547;52.530;13.194;2023-02-03T16:24:36;7.00;99.90
39875;DHT22;25547;52.530;13.194;2023-02-03T16:27:42;7.10;99.90
39875;DHT22;25547;52.530;13.194;2023-02-03T16:35:57;7.00;99.90
39875;DHT22;25547;52.530;13.194;2023-02-03T16:38:49;7.00;99.90
39875;DHT22;25547;52.530;13.194;2023-02-03T16:41:33;7.00;99.90
39875;DHT22;25547;52.530;13.194;2023-02-03T16:44:18;7.00;99.90
39875;DHT22;25547;52.530;13.194;2023-02-03T16:47:14;7.10;99.90
39875;DHT22;25547;52.530;13.194;2023-02-03T16:50:10;7.10;99.90
39875;DHT22;25547;52.530;13.194;2023-02-03T16:52:54;7.10;99.90
39875;DHT22;25547;52.530;13.194;2023-02-03T16:55:22;7.10;99.90
39875;DHT22;25547;52.530;13.194;2023-02-03T16:57:51;7.10;99.90
39875;DHT22;25547;52.530;13.194;2023-02-03T17:00:17;7.10;99.90
39875;DHT22;25547;52.530;13.194;2023-02-03T17:02:49;7.10;99.90
39875;DHT22;25547;52.530;13.194;2023-02-03T17:05:15;7.10;99.90
39875;DHT22;25547;52.530;13.194;2023-02-03T17:07:43;7.10;99.90
39875;DHT22;25547;52.530;13.194;2023-02-03T17:10:09;7.10;99.90
39875;DHT22;25547;52.530;13.194;2023-02-03T17:12:38;7.10;99.90
39875;DHT22;25547;52.530;13.194;2023-02-03T17:15:06;7.10;99.90
39875;DHT22;25547;52.530;13.194;2023-02-03T17:17:32;7.10;99.90
39875;DHT22;25547;52.530;13.194;2023-02-03T17:19:57;7.10;99.90
39875;DHT22;25547;52.530;13.194;2023-02-03T17:22:24;7.10;99.90
39875;DHT22;25547;52.530;13.194;2023-02-03T17:24:51;7.10;99.90
39875;DHT22;25547;52.530;13.194;2023-02-03T17:27:17;7.10;99.90
39875;DHT22;25547;52.530;13.194;2023-02-03T17:29:45;7.10;99.90
39875;DHT22;25547;52.530;13.194;2023-02-03T17:32:10;7.10;99.90
39875;DHT22;25547;52.530;13.194;2023-02-03T17:34:40;7.10;99.90
39875;DHT22;25547;52.530;13.194;2023-02-03T17:37:07;7.10;99.90
39875;DHT22;25547;52.530;13.194;2023-02-03T17:39:36;7.10;99.90
39875;DHT22;25547;52.530;13.194;2023-02-03T17:42:02;7.00;99.90
39875;DHT22;25547;52.530;13.194;2023-02-03T17:44:28;7.00;99.90
39875;DHT22;25547;52.530;13.194;2023-02-03T17:46:55;7.10;99.90
39875;DHT22;25547;52.530;13.194;2023-02-03T17:49:21;7.10;99.90
39875;DHT22;25547;52.530;13.194;2023-02-03T17:51:47;7.00;99.90
39875;DHT22;25547;52.530;13.194;2023-02-03T17:54:12;7.10;99.90
39875;DHT22;25547;52.530;13.194;2023-02-03T17:56:38;7.00;99.90
39875;DHT22;25547;52.530;13.194;2023-02-03T17:59:04;7.10;99.90
39875;DHT22;25547;52.530;13.194;2023-02-03T18:01:30;7.00;99.90
39875;DHT22;25547;52.530;13.194;2023-02-03T18:03:58;7.10;99.90
39875;DHT22;25547;52.530;13.194;2023-02-03T18:06:26;7.10;99.90
39875;DHT22;25547;52.530;13.194;2023-02-03T18:08:55;7.10;99.90
39875;DHT22;25547;52.530;13.194;2023-02-03T18:11:26;7.10;99.90
39875;DHT22;25547;52.530;13.194;2023-02-03T18:13:54;7.10;99.90
39875;DHT22;25547;52.530;13.194;2023-02-03T18:16:24;7.10;99.90
39875;DHT22;25547;52.530;13.194;2023-02-03T18:18:51;7.10;99.90
39875;DHT22;25547;52.530;13.194;2023-02-03T18:21:19;7.10;99.90
39875;DHT22;25547;52.530;13.194;2023-02-03T18:23:50;7.10;99.90
39875;DHT22;25547;52.530;13.194;2023-02-03T18:26:21;7.20;99.90
39875;DHT22;25547;52.530;13.194;2023-02-03T18:28:50;7.10;99.90
39875;DHT22;25547;52.530;13.194;2023-02-03T18:31:17;7.20;99.90
39875;DHT22;25547;52.530;13.194;2023-02-03T18:33:44;7.20;99.90
39875;DHT22;25547;52.530;13.194;2023-02-03T18:36:10;7.20;99.90
39875;DHT22;25547;52.530;13.194;2023-02-03T18:38:41;7.10;99.90
39875;DHT22;25547;52.530;13.194;2023-02-03T18:41:10;7.20;99.90
39875;DHT22;25547;52.530;13.194;2023-02-03T18:43:36;7.20;99.90
39875;DHT22;25547;52.530;13.194;2023-02-03T18:46:10;7.20;99.90
39875;DHT22;25547;52.530;13.194;2023-02-03T18:48:38;7.20;99.90
39875;DHT22;25547;52.530;13.194;2023-02-03T18:51:08;7.10;99.90
39875;DHT22;25547;52.530;13.194;2023-02-03T18:53:36;7.10;99.90
39875;DHT22;25547;52.530;13.194;2023-02-03T18:56:13;7.10;99.90
39875;DHT22;25547;52.530;13.194;2023-02-03T18:58:39;7.10;99.90
39875;DHT22;25547;52.530;13.194;2023-02-03T19:01:07;7.10;99.90
39875;DHT22;25547;52.530;13.194;2023-02-03T19:03:40;7.10;99.90
39875;DHT22;25547;52.530;13.194;2023-02-03T19:06:09;7.10;99.90
39875;DHT22;25547;52.530;13.194;2023-02-03T19:08:38;7.10;99.90
39875;DHT22;25547;52.530;13.194;2023-02-03T19:11:05;7.10;99.90
39875;DHT22;25547;52.530;13.194;2023-02-03T19:13:33;7.10;99.90